sensor_id;sensor_type;location;lat;lon;timestamp;P1;durP1;ratioP1;P2;durP2;ratioP2
46651;SDS011;32377;52.182;5.398;2023-03-01T00:01:46;24.47;;;14.17;;
46651;SDS011;32377;52.182;5.398;2023-03-01T00:04:12;28.20;;;15.43;;
46651;SDS011;32377;52.182;5.398;2023-03-01T00:06:37;25.13;;;14.47;;
46651;SDS011;32377;52.182;5.398;2023-03-01T00:09:03;24.93;;;13.97;;
46651;SDS011;32377;52.182;5.398;2023-03-01T00:11:30;27.10;;;13.90;;
46651;SDS011;32377;52.182;5.398;2023-03-01T00:13:57;22.63;;;12.77;;
46651;SDS011;32377;52.182;5.398;2023-03-01T00:16:27;23.10;;;13.43;;
46651;SDS011;32377;52.182;5.398;2023-03-01T00:18:55;23.77;;;14.07;;
46651;SDS011;32377;52.182;5.398;2023-03-01T00:21:21;21.00;;;13.57;;
46651;SDS011;32377;52.182;5.398;2023-03-01T00:23:48;22.43;;;13.77;;
46651;SDS011;32377;52.182;5.398;2023-03-01T00:26:14;25.40;;;13.73;;
46651;SDS011;32377;52.182;5.398;2023-03-01T00:28:42;23.63;;;13.07;;
46651;SDS011;32377;52.182;5.398;2023-03-01T00:31:12;23.57;;;13.73;;
46651;SDS011;32377;52.182;5.398;2023-03-01T00:33:39;21.13;;;13.80;;
46651;SDS011;32377;52.182;5.398;2023-03-01T00:36:07;24.73;;;13.80;;
46651;SDS011;32377;52.182;5.398;2023-03-01T00:38:40;22.87;;;13.83;;
46651;SDS011;32377;52.182;5.398;2023-03-01T00:41:10;19.97;;;12.97;;
46651;SDS011;32377;52.182;5.398;2023-03-01T00:43:41;24.80;;;13.73;;
46651;SDS011;32377;52.182;5.398;2023-03-01T00:46:17;23.13;;;14.37;;
46651;SDS011;32377;52.182;5.398;2023-03-01T00:48:47;23.17;;;14.20;;
46651;SDS011;32377;52.182;5.398;2023-03-01T00:51:18;23.00;;;14.17;;
46651;SDS011;32377;52.182;5.398;2023-03-01T00:53:45;26.07;;;14.00;;
46651;SDS011;32377;52.182;5.398;2023-03-01T00:56:12;21.30;;;13.60;;
46651;SDS011;32377;52.182;5.398;2023-03-01T00:58:39;20.13;;;13.77;;
46651;SDS011;32377;52.182;5.398;2023-03-01T01:01:09;23.80;;;14.70;;
46651;SDS011;32377;52.182;5.398;2023-03-01T01:03:42;21.63;;;13.90;;
46651;SDS011;32377;52.182;5.398;2023-03-01T01:06:13;22.10;;;14.10;;
46651;SDS011;32377;52.182;5.398;2023-03-01T01:08:39;22.27;;;14.17;;
46651;SDS011;32377;52.182;5.398;2023-03-01T01:11:05;27.07;;;15.37;;
46651;SDS011;32377;52.182;5.398;2023-03-01T01:13:30;24.53;;;16.07;;
46651;SDS011;32377;52.182;5.398;2023-03-01T01:16:00;27.63;;;16.13;;
46651;SDS011;32377;52.182;5.398;2023-03-01T01:18:26;26.73;;;16.43;;
46651;SDS011;32377;52.182;5.398;2023-03-01T01:20:52;22.20;;;14.20;;
46651;SDS011;32377;52.182;5.398;2023-03-01T01:23:17;28.07;;;15.97;;
46651;SDS011;32377;52.182;5.398;2023-03-01T01:25:43;26.43;;;16.47;;
46651;SDS011;32377;52.182;5.398;2023-03-01T01:28:08;26.60;;;15.90;;
46651;SDS011;32377;52.182;5.398;2023-03-01T01:30:34;34.10;;;16.23;;
46651;SDS011;32377;52.182;5.398;2023-03-01T01:32:59;26.13;;;15.37;;
46651;SDS011;32377;52.182;5.398;2023-03-01T01:35:25;27.93;;;16.27;;
46651;SDS011;32377;52.182;5.398;2023-03-01T01:37:50;27.40;;;16.33;;
46651;SDS011;32377;52.182;5.398;2023-03-01T01:40:16;29.33;;;16.57;;
46651;SDS011;32377;52.182;5.398;2023-03-01T01:42:42;26.63;;;16.50;;
46651;SDS011;32377;52.182;5.398;2023-03-01T01:45:27;26.33;;;17.43;;
46651;SDS011;32377;52.182;5.398;2023-03-01T01:47:59;34.33;;;18.57;;
46651;SDS011;32377;52.182;5.398;2023-03-01T01:50:29;34.40;;;17.10;;
46651;SDS011;32377;52.182;5.398;2023-03-01T01:53:03;31.87;;;18.07;;
46651;SDS011;32377;52.182;5.398;2023-03-01T01:55:35;26.03;;;16.50;;
46651;SDS011;32377;52.182;5.398;2023-03-01T01:58:05;28.83;;;17.10;;
46651;SDS011;32377;52.182;5.398;2023-03-01T02:00:33;29.80;;;17.50;;
46651;SDS011;32377;52.182;5.398;2023-03-01T02:03:01;31.47;;;17.33;;
46651;SDS011;32377;52.182;5.398;2023-03-01T02:05:39;25.47;;;16.40;;
46651;SDS011;32377;52.182;5.398;2023-03-01T02:08:31;28.00;;;16.90;;
46651;SDS011;32377;52.182;5.398;2023-03-01T02:11:00;30.27;;;17.33;;
46651;SDS011;32377;52.182;5.398;2023-03-01T02:13:29;28.20;;;16.50;;
46651;SDS011;32377;52.182;5.398;2023-03-01T02:15:55;29.50;;;16.70;;
46651;SDS011;32377;52.182;5.398;2023-03-01T02:18:21;32.43;;;16.83;;
46651;SDS011;32377;52.182;5.398;2023-03-01T02:23:27;33.80;;;18.37;;
46651;SDS011;32377;52.182;5.398;2023-03-01T02:25:58;26.77;;;16.07;;
46651;SDS011;32377;52.182;5.398;2023-03-01T02:28:33;28.50;;;17.37;;
46651;SDS011;32377;52.182;5.398;2023-03-01T02:31:05;28.03;;;18.00;;
46651;SDS011;32377;52.182;5.398;2023-03-01T02:33:52;32.60;;;17.27;;
46651;SDS011;32377;52.182;5.398;2023-03-01T02:36:20;32.00;;;17.10;;
46651;SDS011;32377;52.182;5.398;2023-03-01T02:38:49;28.40;;;16.57;;
46651;SDS011;32377;52.182;5.398;2023-03-01T02:41:19;32.13;;;16.70;;
46651;SDS011;32377;52.182;5.398;2023-03-01T02:43:45;27.77;;;16.43;;
46651;SDS011;32377;52.182;5.398;2023-03-01T02:46:16;35.53;;;17.90;;
46651;SDS011;32377;52.182;5.398;2023-03-01T02:51:30;34.50;;;16.90;;
46651;SDS011;32377;52.182;5.398;2023-03-01T02:56:44;29.27;;;16.90;;
46651;SDS011;32377;52.182;5.398;2023-03-01T02:59:14;27.37;;;16.43;;
46651;SDS011;32377;52.182;5.398;2023-03-01T03:01:45;32.83;;;17.80;;
46651;SDS011;32377;52.182;5.398;2023-03-01T03:04:13;32.23;;;17.17;;
46651;SDS011;32377;52.182;5.398;2023-03-01T03:06:46;35.88;;;17.50;;
46651;SDS011;32377;52.182;5.398;2023-03-01T03:09:13;29.97;;;18.73;;
46651;SDS011;32377;52.182;5.398;2023-03-01T03:11:39;33.03;;;18.60;;
46651;SDS011;32377;52.182;5.398;2023-03-01T03:14:06;29.33;;;17.80;;
46651;SDS011;32377;52.182;5.398;2023-03-01T03:16:37;30.03;;;17.37;;
46651;SDS011;32377;52.182;5.398;2023-03-01T03:19:04;31.57;;;17.07;;
46651;SDS011;32377;52.182;5.398;2023-03-01T03:21:31;28.60;;;17.00;;
46651;SDS011;32377;52.182;5.398;2023-03-01T03:23:57;31.57;;;18.30;;
46651;SDS011;32377;52.182;5.398;2023-03-01T03:26:23;33.33;;;18.07;;
46651;SDS011;32377;52.182;5.398;2023-03-01T03:28:49;31.43;;;16.90;;
46651;SDS011;32377;52.182;5.398;2023-03-01T03:31:14;37.50;;;19.40;;
46651;SDS011;32377;52.182;5.398;2023-03-01T03:33:40;33.57;;;18.27;;
46651;SDS011;32377;52.182;5.398;2023-03-01T03:36:06;31.97;;;18.53;;
46651;SDS011;32377;52.182;5.398;2023-03-01T03:38:37;31.40;;;17.80;;
46651;SDS011;32377;52.182;5.398;2023-03-01T03:41:05;31.37;;;17.53;;
46651;SDS011;32377;52.182;5.398;2023-03-01T03:43:33;34.07;;;19.00;;
46651;SDS011;32377;52.182;5.398;2023-03-01T03:45:59;30.70;;;17.80;;
46651;SDS011;32377;52.182;5.398;2023-03-01T03:48:25;36.13;;;18.13;;
46651;SDS011;32377;52.182;5.398;2023-03-01T03:50:55;33.23;;;18.37;;
46651;SDS011;32377;52.182;5.398;2023-03-01T03:53:22;33.67;;;17.77;;
46651;SDS011;32377;52.182;5.398;2023-03-01T03:55:49;34.40;;;18.07;;
46651;SDS011;32377;52.182;5.398;2023-03-01T03:58:16;29.93;;;17.23;;
46651;SDS011;32377;52.182;5.398;2023-03-01T04:00:45;32.53;;;18.47;;
46651;SDS011;32377;52.182;5.398;2023-03-01T04:03:12;34.03;;;18.17;;
46651;SDS011;32377;52.182;5.398;2023-03-01T04:05:40;30.57;;;18.17;;
46651;SDS011;32377;52.182;5.398;2023-03-01T04:08:06;33.40;;;18.33;;
46651;SDS011;32377;52.182;5.398;2023-03-01T04:10:34;34.97;;;19.67;;
46651;SDS011;32377;52.182;5.398;2023-03-01T04:13:05;35.73;;;18.27;;
46651;SDS011;32377;52.182;5.398;2023-03-01T04:15:32;33.53;;;18.47;;
46651;SDS011;32377;52.182;5.398;2023-03-01T04:17:59;32.17;;;17.80;;
46651;SDS011;32377;52.182;5.398;2023-03-01T04:20:26;33.43;;;19.13;;
46651;SDS011;32377;52.182;5.398;2023-03-01T04:22:58;34.63;;;18.17;;
46651;SDS011;32377;52.182;5.398;2023-03-01T04:25:24;33.07;;;18.43;;
46651;SDS011;32377;52.182;5.398;2023-03-01T04:27:50;32.73;;;18.43;;
46651;SDS011;32377;52.182;5.398;2023-03-01T04:30:15;30.47;;;18.10;;
46651;SDS011;32377;52.182;5.398;2023-03-01T04:32:41;34.70;;;18.70;;
46651;SDS011;32377;52.182;5.398;2023-03-01T04:35:07;36.10;;;19.70;;
46651;SDS011;32377;52.182;5.398;2023-03-01T04:37:33;29.23;;;18.03;;
46651;SDS011;32377;52.182;5.398;2023-03-01T04:39:59;31.80;;;18.10;;
46651;SDS011;32377;52.182;5.398;2023-03-01T04:42:25;35.47;;;19.03;;
46651;SDS011;32377;52.182;5.398;2023-03-01T04:44:51;33.40;;;18.30;;
46651;SDS011;32377;52.182;5.398;2023-03-01T04:47:17;30.60;;;17.73;;
46651;SDS011;32377;52.182;5.398;2023-03-01T04:49:42;29.53;;;17.33;;
46651;SDS011;32377;52.182;5.398;2023-03-01T04:52:08;39.57;;;20.77;;
46651;SDS011;32377;52.182;5.398;2023-03-01T04:54:34;34.10;;;19.53;;
46651;SDS011;32377;52.182;5.398;2023-03-01T04:59:10;34.33;;;18.90;;
46651;SDS011;32377;52.182;5.398;2023-03-01T05:01:37;31.13;;;18.67;;
46651;SDS011;32377;52.182;5.398;2023-03-01T05:04:03;36.47;;;19.67;;
46651;SDS011;32377;52.182;5.398;2023-03-01T05:06:30;34.80;;;19.10;;
46651;SDS011;32377;52.182;5.398;2023-03-01T05:08:56;38.13;;;19.53;;
46651;SDS011;32377;52.182;5.398;2023-03-01T05:11:22;33.33;;;20.00;;
46651;SDS011;32377;52.182;5.398;2023-03-01T05:13:48;35.83;;;20.40;;
46651;SDS011;32377;52.182;5.398;2023-03-01T05:16:17;34.53;;;20.10;;
46651;SDS011;32377;52.182;5.398;2023-03-01T05:18:44;40.10;;;20.53;;
46651;SDS011;32377;52.182;5.398;2023-03-01T05:21:11;35.80;;;20.27;;
46651;SDS011;32377;52.182;5.398;2023-03-01T05:23:40;35.50;;;19.00;;
46651;SDS011;32377;52.182;5.398;2023-03-01T05:26:06;38.57;;;20.00;;
46651;SDS011;32377;52.182;5.398;2023-03-01T05:28:33;36.77;;;19.57;;
46651;SDS011;32377;52.182;5.398;2023-03-01T05:30:58;44.03;;;20.97;;
46651;SDS011;32377;52.182;5.398;2023-03-01T05:33:24;35.60;;;19.37;;
46651;SDS011;32377;52.182;5.398;2023-03-01T05:35:50;36.77;;;20.07;;
46651;SDS011;32377;52.182;5.398;2023-03-01T05:38:19;41.10;;;21.97;;
46651;SDS011;32377;52.182;5.398;2023-03-01T05:40:46;36.63;;;21.27;;
46651;SDS011;32377;52.182;5.398;2023-03-01T05:43:13;42.90;;;21.90;;
46651;SDS011;32377;52.182;5.398;2023-03-01T05:45:40;37.30;;;21.10;;
46651;SDS011;32377;52.182;5.398;2023-03-01T05:48:07;39.50;;;20.93;;
46651;SDS011;32377;52.182;5.398;2023-03-01T05:50:35;34.97;;;20.47;;
46651;SDS011;32377;52.182;5.398;2023-03-01T05:53:12;40.33;;;21.73;;
46651;SDS011;32377;52.182;5.398;2023-03-01T05:55:39;33.73;;;19.77;;
46651;SDS011;32377;52.182;5.398;2023-03-01T05:58:07;41.97;;;21.47;;
46651;SDS011;32377;52.182;5.398;2023-03-01T06:00:34;42.07;;;21.80;;
46651;SDS011;32377;52.182;5.398;2023-03-01T06:03:01;38.43;;;20.60;;
46651;SDS011;32377;52.182;5.398;2023-03-01T06:05:27;37.23;;;20.67;;
46651;SDS011;32377;52.182;5.398;2023-03-01T06:07:53;35.53;;;20.50;;
46651;SDS011;32377;52.182;5.398;2023-03-01T06:10:19;35.90;;;19.67;;
46651;SDS011;32377;52.182;5.398;2023-03-01T06:12:46;42.73;;;22.00;;
46651;SDS011;32377;52.182;5.398;2023-03-01T06:15:12;40.03;;;22.17;;
46651;SDS011;32377;52.182;5.398;2023-03-01T06:17:40;36.47;;;21.03;;
46651;SDS011;32377;52.182;5.398;2023-03-01T06:20:09;39.43;;;20.90;;
46651;SDS011;32377;52.182;5.398;2023-03-01T06:22:35;38.57;;;21.90;;
46651;SDS011;32377;52.182;5.398;2023-03-01T06:25:00;44.97;;;22.67;;
46651;SDS011;32377;52.182;5.398;2023-03-01T06:27:27;38.67;;;21.17;;
46651;SDS011;32377;52.182;5.398;2023-03-01T06:29:52;39.57;;;21.60;;
46651;SDS011;32377;52.182;5.398;2023-03-01T06:32:18;39.30;;;21.70;;
46651;SDS011;32377;52.182;5.398;2023-03-01T06:34:44;39.40;;;20.50;;
46651;SDS011;32377;52.182;5.398;2023-03-01T06:37:10;46.67;;;23.60;;
46651;SDS011;32377;52.182;5.398;2023-03-01T06:39:35;37.70;;;20.83;;
46651;SDS011;32377;52.182;5.398;2023-03-01T06:42:01;41.37;;;21.47;;
46651;SDS011;32377;52.182;5.398;2023-03-01T06:44:27;43.53;;;22.50;;
46651;SDS011;32377;52.182;5.398;2023-03-01T06:46:53;47.93;;;24.23;;
46651;SDS011;32377;52.182;5.398;2023-03-01T06:49:18;49.17;;;23.73;;
46651;SDS011;32377;52.182;5.398;2023-03-01T06:51:45;43.37;;;22.23;;
46651;SDS011;32377;52.182;5.398;2023-03-01T06:54:11;52.13;;;26.60;;
46651;SDS011;32377;52.182;5.398;2023-03-01T06:56:37;46.63;;;24.30;;
46651;SDS011;32377;52.182;5.398;2023-03-01T06:59:02;51.77;;;26.17;;
46651;SDS011;32377;52.182;5.398;2023-03-01T07:01:29;48.20;;;24.00;;
46651;SDS011;32377;52.182;5.398;2023-03-01T07:03:55;43.33;;;23.27;;
46651;SDS011;32377;52.182;5.398;2023-03-01T07:06:21;43.23;;;23.40;;
46651;SDS011;32377;52.182;5.398;2023-03-01T07:08:47;52.57;;;24.90;;
46651;SDS011;32377;52.182;5.398;2023-03-01T07:11:13;44.00;;;23.93;;
46651;SDS011;32377;52.182;5.398;2023-03-01T07:13:39;43.87;;;24.37;;
46651;SDS011;32377;52.182;5.398;2023-03-01T07:16:05;44.03;;;23.23;;
46651;SDS011;32377;52.182;5.398;2023-03-01T07:18:31;45.83;;;23.80;;
46651;SDS011;32377;52.182;5.398;2023-03-01T07:20:57;46.07;;;24.63;;
46651;SDS011;32377;52.182;5.398;2023-03-01T07:23:22;45.93;;;25.37;;
46651;SDS011;32377;52.182;5.398;2023-03-01T07:25:52;50.37;;;25.70;;
46651;SDS011;32377;52.182;5.398;2023-03-01T07:28:18;54.13;;;27.97;;
46651;SDS011;32377;52.182;5.398;2023-03-01T07:30:44;56.43;;;28.07;;
46651;SDS011;32377;52.182;5.398;2023-03-01T07:33:09;49.77;;;27.07;;
46651;SDS011;32377;52.182;5.398;2023-03-01T07:35:35;62.40;;;29.37;;
46651;SDS011;32377;52.182;5.398;2023-03-01T07:38:00;58.93;;;28.73;;
46651;SDS011;32377;52.182;5.398;2023-03-01T07:40:26;62.63;;;29.67;;
46651;SDS011;32377;52.182;5.398;2023-03-01T07:42:58;59.83;;;28.40;;
46651;SDS011;32377;52.182;5.398;2023-03-01T07:45:24;52.67;;;28.07;;
46651;SDS011;32377;52.182;5.398;2023-03-01T07:47:51;58.77;;;30.37;;
46651;SDS011;32377;52.182;5.398;2023-03-01T07:50:17;57.73;;;28.80;;
46651;SDS011;32377;52.182;5.398;2023-03-01T07:52:47;58.23;;;29.07;;
46651;SDS011;32377;52.182;5.398;2023-03-01T07:55:13;54.13;;;28.93;;
46651;SDS011;32377;52.182;5.398;2023-03-01T07:57:39;57.67;;;27.77;;
46651;SDS011;32377;52.182;5.398;2023-03-01T08:00:05;50.43;;;28.47;;
46651;SDS011;32377;52.182;5.398;2023-03-01T08:02:33;49.10;;;27.27;;
46651;SDS011;32377;52.182;5.398;2023-03-01T08:04:58;51.43;;;27.27;;
46651;SDS011;32377;52.182;5.398;2023-03-01T08:07:24;47.77;;;26.97;;
46651;SDS011;32377;52.182;5.398;2023-03-01T08:09:49;56.53;;;26.23;;
46651;SDS011;32377;52.182;5.398;2023-03-01T08:12:15;45.13;;;24.77;;
46651;SDS011;32377;52.182;5.398;2023-03-01T08:14:43;45.20;;;23.40;;
46651;SDS011;32377;52.182;5.398;2023-03-01T08:17:09;45.30;;;24.43;;
46651;SDS011;32377;52.182;5.398;2023-03-01T08:19:34;40.07;;;22.53;;
46651;SDS011;32377;52.182;5.398;2023-03-01T08:22:03;41.53;;;23.03;;
46651;SDS011;32377;52.182;5.398;2023-03-01T08:24:29;41.00;;;20.97;;
46651;SDS011;32377;52.182;5.398;2023-03-01T08:26:55;34.53;;;18.63;;
46651;SDS011;32377;52.182;5.398;2023-03-01T08:29:20;39.10;;;19.40;;
46651;SDS011;32377;52.182;5.398;2023-03-01T08:31:46;31.67;;;19.17;;
46651;SDS011;32377;52.182;5.398;2023-03-01T08:34:13;30.03;;;17.43;;
46651;SDS011;32377;52.182;5.398;2023-03-01T08:36:41;29.90;;;16.60;;
46651;SDS011;32377;52.182;5.398;2023-03-01T08:39:09;29.73;;;16.07;;
46651;SDS011;32377;52.182;5.398;2023-03-01T08:41:36;24.00;;;14.63;;
46651;SDS011;32377;52.182;5.398;2023-03-01T08:44:03;22.07;;;13.57;;
46651;SDS011;32377;52.182;5.398;2023-03-01T08:46:30;32.53;;;14.03;;
46651;SDS011;32377;52.182;5.398;2023-03-01T08:48:57;27.83;;;13.90;;
46651;SDS011;32377;52.182;5.398;2023-03-01T08:51:23;21.70;;;12.90;;
46651;SDS011;32377;52.182;5.398;2023-03-01T08:53:49;25.07;;;12.33;;
46651;SDS011;32377;52.182;5.398;2023-03-01T08:56:15;20.83;;;11.23;;
46651;SDS011;32377;52.182;5.398;2023-03-01T08:58:47;21.63;;;12.10;;
46651;SDS011;32377;52.182;5.398;2023-03-01T09:01:17;23.13;;;11.70;;
46651;SDS011;32377;52.182;5.398;2023-03-01T09:03:44;19.47;;;11.63;;
46651;SDS011;32377;52.182;5.398;2023-03-01T09:06:10;18.63;;;11.17;;
46651;SDS011;32377;52.182;5.398;2023-03-01T09:08:37;19.60;;;11.17;;
46651;SDS011;32377;52.182;5.398;2023-03-01T09:11:08;23.20;;;11.70;;
46651;SDS011;32377;52.182;5.398;2023-03-01T09:13:35;22.00;;;11.63;;
46651;SDS011;32377;52.182;5.398;2023-03-01T09:16:01;17.17;;;9.47;;
46651;SDS011;32377;52.182;5.398;2023-03-01T09:18:28;19.07;;;10.43;;
46651;SDS011;32377;52.182;5.398;2023-03-01T09:21:01;16.37;;;9.97;;
46651;SDS011;32377;52.182;5.398;2023-03-01T09:23:27;19.37;;;9.53;;
46651;SDS011;32377;52.182;5.398;2023-03-01T09:25:52;16.43;;;8.70;;
46651;SDS011;32377;52.182;5.398;2023-03-01T09:28:18;13.13;;;8.87;;
46651;SDS011;32377;52.182;5.398;2023-03-01T09:30:43;15.87;;;8.90;;
46651;SDS011;32377;52.182;5.398;2023-03-01T09:33:09;20.10;;;8.50;;
46651;SDS011;32377;52.182;5.398;2023-03-01T09:35:39;15.07;;;8.27;;
46651;SDS011;32377;52.182;5.398;2023-03-01T09:38:10;11.87;;;7.97;;
46651;SDS011;32377;52.182;5.398;2023-03-01T09:40:37;15.23;;;8.67;;
46651;SDS011;32377;52.182;5.398;2023-03-01T09:43:41;12.53;;;7.70;;
46651;SDS011;32377;52.182;5.398;2023-03-01T09:46:09;13.87;;;7.97;;
46651;SDS011;32377;52.182;5.398;2023-03-01T09:48:43;12.57;;;7.50;;
46651;SDS011;32377;52.182;5.398;2023-03-01T09:51:17;12.10;;;7.60;;
46651;SDS011;32377;52.182;5.398;2023-03-01T09:53:46;12.63;;;7.17;;
46651;SDS011;32377;52.182;5.398;2023-03-01T09:59:13;12.57;;;6.93;;
46651;SDS011;32377;52.182;5.398;2023-03-01T10:01:54;11.80;;;7.17;;
46651;SDS011;32377;52.182;5.398;2023-03-01T10:07:21;13.57;;;7.07;;
46651;SDS011;32377;52.182;5.398;2023-03-01T10:10:07;12.87;;;6.13;;
46651;SDS011;32377;52.182;5.398;2023-03-01T10:12:40;12.07;;;5.25;;
46651;SDS011;32377;52.182;5.398;2023-03-01T10:15:15;12.23;;;7.10;;
46651;SDS011;32377;52.182;5.398;2023-03-01T10:17:57;16.20;;;8.87;;
46651;SDS011;32377;52.182;5.398;2023-03-01T10:23:23;15.73;;;9.20;;
46651;SDS011;32377;52.182;5.398;2023-03-01T10:30:50;11.87;;;6.90;;
46651;SDS011;32377;52.182;5.398;2023-03-01T10:33:24;11.43;;;5.77;;
46651;SDS011;32377;52.182;5.398;2023-03-01T10:35:52;11.97;;;6.27;;
46651;SDS011;32377;52.182;5.398;2023-03-01T10:38:18;13.40;;;6.60;;
46651;SDS011;32377;52.182;5.398;2023-03-01T10:40:55;18.00;;;8.83;;
46651;SDS011;32377;52.182;5.398;2023-03-01T10:43:24;22.57;;;10.47;;
46651;SDS011;32377;52.182;5.398;2023-03-01T10:46:53;17.33;;;8.48;;
46651;SDS011;32377;52.182;5.398;2023-03-01T10:49:15;29.77;;;13.37;;
46651;SDS011;32377;52.182;5.398;2023-03-01T10:51:41;16.97;;;6.43;;
46651;SDS011;32377;52.182;5.398;2023-03-01T11:04:34;9.50;;;5.47;;
46651;SDS011;32377;52.182;5.398;2023-03-01T11:07:00;6.23;;;3.93;;
46651;SDS011;32377;52.182;5.398;2023-03-01T11:09:30;9.05;;;4.47;;
46651;SDS011;32377;52.182;5.398;2023-03-01T11:12:02;6.57;;;3.90;;
46651;SDS011;32377;52.182;5.398;2023-03-01T11:14:33;6.93;;;3.70;;
46651;SDS011;32377;52.182;5.398;2023-03-01T11:17:16;7.70;;;3.90;;
46651;SDS011;32377;52.182;5.398;2023-03-01T11:20:02;6.60;;;3.53;;
46651;SDS011;32377;52.182;5.398;2023-03-01T11:22:30;7.87;;;3.70;;
46651;SDS011;32377;52.182;5.398;2023-03-01T11:24:57;6.50;;;3.70;;
46651;SDS011;32377;52.182;5.398;2023-03-01T11:27:26;7.13;;;3.58;;
46651;SDS011;32377;52.182;5.398;2023-03-01T11:32:24;5.88;;;3.65;;
46651;SDS011;32377;52.182;5.398;2023-03-01T11:34:57;6.68;;;3.28;;
46651;SDS011;32377;52.182;5.398;2023-03-01T11:37:32;7.73;;;3.57;;
46651;SDS011;32377;52.182;5.398;2023-03-01T11:40:10;5.65;;;3.25;;
46651;SDS011;32377;52.182;5.398;2023-03-01T11:42:52;8.38;;;3.53;;
46651;SDS011;32377;52.182;5.398;2023-03-01T11:45:56;7.65;;;3.50;;
46651;SDS011;32377;52.182;5.398;2023-03-01T11:51:13;6.78;;;3.40;;
46651;SDS011;32377;52.182;5.398;2023-03-01T11:53:56;6.13;;;3.10;;
46651;SDS011;32377;52.182;5.398;2023-03-01T11:56:38;7.53;;;3.88;;
46651;SDS011;32377;52.182;5.398;2023-03-01T12:12:34;5.70;;;3.60;;
46651;SDS011;32377;52.182;5.398;2023-03-01T12:17:49;6.28;;;4.03;;
46651;SDS011;32377;52.182;5.398;2023-03-01T12:25:41;9.25;;;4.38;;
46651;SDS011;32377;52.182;5.398;2023-03-01T12:29:00;8.68;;;4.40;;
46651;SDS011;32377;52.182;5.398;2023-03-01T12:34:27;8.65;;;4.68;;
46651;SDS011;32377;52.182;5.398;2023-03-01T12:36:58;10.27;;;4.72;;
46651;SDS011;32377;52.182;5.398;2023-03-01T12:47:54;7.60;;;3.63;;
46651;SDS011;32377;52.182;5.398;2023-03-01T12:51:02;7.05;;;4.00;;
46651;SDS011;32377;52.182;5.398;2023-03-01T12:53:35;8.05;;;4.55;;
46651;SDS011;32377;52.182;5.398;2023-03-01T12:56:17;6.70;;;4.22;;
46651;SDS011;32377;52.182;5.398;2023-03-01T12:58:55;6.65;;;4.22;;
46651;SDS011;32377;52.182;5.398;2023-03-01T13:01:56;6.95;;;3.72;;
46651;SDS011;32377;52.182;5.398;2023-03-01T13:04:53;7.18;;;3.80;;
46651;SDS011;32377;52.182;5.398;2023-03-01T13:07:41;6.60;;;3.58;;
46651;SDS011;32377;52.182;5.398;2023-03-01T13:12:50;6.70;;;4.07;;
46651;SDS011;32377;52.182;5.398;2023-03-01T13:17:58;8.00;;;3.88;;
46651;SDS011;32377;52.182;5.398;2023-03-01T13:23:40;7.35;;;4.03;;
46651;SDS011;32377;52.182;5.398;2023-03-01T13:36:07;7.38;;;3.97;;
46651;SDS011;32377;52.182;5.398;2023-03-01T13:38:36;8.18;;;4.47;;
46651;SDS011;32377;52.182;5.398;2023-03-01T13:41:08;7.55;;;4.25;;
46651;SDS011;32377;52.182;5.398;2023-03-01T13:43:37;10.38;;;4.43;;
46651;SDS011;32377;52.182;5.398;2023-03-01T13:46:09;6.78;;;4.32;;
46651;SDS011;32377;52.182;5.398;2023-03-01T13:48:38;9.13;;;4.28;;
46651;SDS011;32377;52.182;5.398;2023-03-01T13:51:05;8.75;;;3.95;;
46651;SDS011;32377;52.182;5.398;2023-03-01T13:53:35;6.72;;;4.10;;
46651;SDS011;32377;52.182;5.398;2023-03-01T13:56:09;7.43;;;4.68;;
46651;SDS011;32377;52.182;5.398;2023-03-01T13:59:02;6.53;;;4.15;;
46651;SDS011;32377;52.182;5.398;2023-03-01T14:01:32;9.43;;;4.10;;
46651;SDS011;32377;52.182;5.398;2023-03-01T14:04:00;8.45;;;4.30;;
46651;SDS011;32377;52.182;5.398;2023-03-01T14:06:27;8.30;;;4.63;;
46651;SDS011;32377;52.182;5.398;2023-03-01T14:16:59;5.72;;;4.15;;
46651;SDS011;32377;52.182;5.398;2023-03-01T14:19:40;9.05;;;4.30;;
46651;SDS011;32377;52.182;5.398;2023-03-01T14:25:00;7.05;;;4.50;;
46651;SDS011;32377;52.182;5.398;2023-03-01T14:27:38;7.57;;;3.97;;
46651;SDS011;32377;52.182;5.398;2023-03-01T14:30:14;7.32;;;4.70;;
46651;SDS011;32377;52.182;5.398;2023-03-01T14:32:56;7.47;;;4.30;;
46651;SDS011;32377;52.182;5.398;2023-03-01T14:35:27;8.98;;;4.72;;
46651;SDS011;32377;52.182;5.398;2023-03-01T14:37:55;8.45;;;4.07;;
46651;SDS011;32377;52.182;5.398;2023-03-01T14:42:51;7.75;;;4.47;;
46651;SDS011;32377;52.182;5.398;2023-03-01T14:45:19;7.20;;;4.63;;
46651;SDS011;32377;52.182;5.398;2023-03-01T14:47:45;9.18;;;4.65;;
46651;SDS011;32377;52.182;5.398;2023-03-01T14:50:28;8.75;;;4.55;;
46651;SDS011;32377;52.182;5.398;2023-03-01T14:53:01;7.03;;;4.40;;
46651;SDS011;32377;52.182;5.398;2023-03-01T14:55:36;6.60;;;4.25;;
46651;SDS011;32377;52.182;5.398;2023-03-01T14:58:08;7.95;;;4.47;;
46651;SDS011;32377;52.182;5.398;2023-03-01T15:00:37;9.50;;;4.45;;
46651;SDS011;32377;52.182;5.398;2023-03-01T15:03:07;6.95;;;4.30;;
46651;SDS011;32377;52.182;5.398;2023-03-01T15:05:38;7.38;;;4.68;;
46651;SDS011;32377;52.182;5.398;2023-03-01T15:08:05;6.50;;;4.15;;
46651;SDS011;32377;52.182;5.398;2023-03-01T15:10:35;7.60;;;4.38;;
46651;SDS011;32377;52.182;5.398;2023-03-01T15:13:19;11.07;;;4.07;;
46651;SDS011;32377;52.182;5.398;2023-03-01T15:15:47;10.32;;;4.53;;
46651;SDS011;32377;52.182;5.398;2023-03-01T15:18:22;6.93;;;4.63;;
46651;SDS011;32377;52.182;5.398;2023-03-01T15:20:52;7.78;;;4.72;;
46651;SDS011;32377;52.182;5.398;2023-03-01T15:23:20;8.02;;;4.35;;
46651;SDS011;32377;52.182;5.398;2023-03-01T15:25:47;9.68;;;4.68;;
46651;SDS011;32377;52.182;5.398;2023-03-01T15:28:21;10.85;;;4.57;;
46651;SDS011;32377;52.182;5.398;2023-03-01T15:30:52;9.88;;;4.22;;
46651;SDS011;32377;52.182;5.398;2023-03-01T15:35:51;7.65;;;4.85;;
46651;SDS011;32377;52.182;5.398;2023-03-01T15:38:51;6.95;;;4.45;;
46651;SDS011;32377;52.182;5.398;2023-03-01T15:41:30;8.90;;;4.55;;
46651;SDS011;32377;52.182;5.398;2023-03-01T15:43:56;7.80;;;4.43;;
46651;SDS011;32377;52.182;5.398;2023-03-01T15:46:33;7.57;;;4.47;;
46651;SDS011;32377;52.182;5.398;2023-03-01T15:49:05;7.47;;;4.75;;
46651;SDS011;32377;52.182;5.398;2023-03-01T15:51:53;9.45;;;4.88;;
46651;SDS011;32377;52.182;5.398;2023-03-01T15:54:21;6.43;;;4.47;;
46651;SDS011;32377;52.182;5.398;2023-03-01T15:56:49;8.88;;;4.72;;
46651;SDS011;32377;52.182;5.398;2023-03-01T15:59:15;7.47;;;4.55;;
46651;SDS011;32377;52.182;5.398;2023-03-01T16:01:42;7.78;;;4.57;;
46651;SDS011;32377;52.182;5.398;2023-03-01T16:04:11;9.75;;;5.13;;
46651;SDS011;32377;52.182;5.398;2023-03-01T16:06:45;7.82;;;4.70;;
46651;SDS011;32377;52.182;5.398;2023-03-01T16:11:47;11.02;;;4.63;;
46651;SDS011;32377;52.182;5.398;2023-03-01T16:14:12;9.30;;;4.72;;
46651;SDS011;32377;52.182;5.398;2023-03-01T16:16:39;7.55;;;4.80;;
46651;SDS011;32377;52.182;5.398;2023-03-01T16:19:05;7.45;;;4.85;;
46651;SDS011;32377;52.182;5.398;2023-03-01T16:21:30;8.20;;;4.63;;
46651;SDS011;32377;52.182;5.398;2023-03-01T16:23:56;8.57;;;5.43;;
46651;SDS011;32377;52.182;5.398;2023-03-01T16:26:22;8.68;;;4.72;;
46651;SDS011;32377;52.182;5.398;2023-03-01T16:28:47;8.00;;;5.03;;
46651;SDS011;32377;52.182;5.398;2023-03-01T16:31:16;6.63;;;4.63;;
46651;SDS011;32377;52.182;5.398;2023-03-01T16:33:43;7.00;;;4.55;;
46651;SDS011;32377;52.182;5.398;2023-03-01T16:36:14;9.80;;;5.30;;